createdAt,value
2022-09-23T00:01:00.658Z,7.44
2022-09-23T00:03:30.140Z,7.39
2022-09-23T00:06:02.000Z,7.47
2022-09-23T00:08:29.872Z,7.46
2022-09-23T00:10:57.925Z,7.45
2022-09-23T00:13:26.767Z,7.38
2022-09-23T00:15:54.235Z,7.39
2022-09-23T00:18:21.801Z,7.35
2022-09-23T00:20:49.445Z,7.36
2022-09-23T00:23:16.958Z,6.99
2022-09-23T00:25:44.453Z,7.17
2022-09-23T00:28:11.943Z,7.10
2022-09-23T00:30:44.691Z,7.21
2022-09-23T00:33:12.208Z,7.29
2022-09-23T00:35:39.690Z,7.20
2022-09-23T00:38:07.136Z,7.27
2022-09-23T00:40:36.210Z,7.20
2022-09-23T00:43:03.694Z,7.28
2022-09-23T00:45:32.293Z,7.26
2022-09-23T00:48:04.999Z,7.21
2022-09-23T00:50:36.062Z,7.08
2022-09-23T00:53:07.869Z,7.23
2022-09-23T00:55:39.331Z,7.19
2022-09-23T00:58:11.039Z,7.10
2022-09-23T01:00:38.942Z,7.12
2022-09-23T01:03:09.382Z,7.01
2022-09-23T01:05:38.520Z,7.15
2022-09-23T01:08:06.584Z,7.09
2022-09-23T01:10:41.949Z,7.03
2022-09-23T01:13:18.252Z,7.00
2022-09-23T01:15:50.292Z,6.89
2022-09-23T01:18:29.661Z,6.92
2022-09-23T01:21:03.502Z,6.96
2022-09-23T01:23:55.108Z,7.11
2022-09-23T01:26:42.839Z,7.14
2022-09-23T01:29:29.782Z,6.90
2022-09-23T01:32:03.037Z,6.60
2022-09-23T01:34:36.935Z,6.94
2022-09-23T01:37:12.022Z,7.02
2022-09-23T01:39:45.359Z,6.96
2022-09-23T01:42:18.639Z,6.98
2022-09-23T01:44:49.538Z,6.97
2022-09-23T01:47:23.707Z,6.98
2022-09-23T01:49:56.016Z,6.91
2022-09-23T01:52:29.287Z,6.97
2022-09-23T01:55:02.104Z,6.88
2022-09-23T01:57:33.282Z,6.95
2022-09-23T02:00:11.149Z,6.88
2022-09-23T02:02:49.855Z,6.81
2022-09-23T02:05:23.008Z,6.82
2022-09-23T02:07:54.277Z,6.92
2022-09-23T02:10:26.358Z,6.86
2022-09-23T02:12:59.095Z,6.83
2022-09-23T02:15:33.716Z,6.96
2022-09-23T02:18:08.682Z,7.00
2022-09-23T02:20:39.718Z,6.85
2022-09-23T02:23:13.036Z,6.81
2022-09-23T02:25:55.983Z,6.79
2022-09-23T02:28:31.908Z,6.83
2022-09-23T02:31:08.518Z,6.85
2022-09-23T02:33:40.216Z,6.80
2022-09-23T02:36:13.435Z,6.79
2022-09-23T02:38:46.351Z,6.67
2022-09-23T02:41:18.307Z,6.73
2022-09-23T02:43:52.227Z,6.61
2022-09-23T02:46:20.295Z,6.64
2022-09-23T02:48:55.041Z,6.67
2022-09-23T02:51:25.297Z,6.66
2022-09-23T02:53:55.688Z,6.66
2022-09-23T02:56:23.362Z,6.63
2022-09-23T02:58:54.057Z,6.64
2022-09-23T03:01:34.988Z,6.59
2022-09-23T03:04:14.703Z,6.55
2022-09-23T03:06:51.912Z,6.49
2022-09-23T03:09:23.283Z,6.20
2022-09-23T03:11:56.831Z,6.37
2022-09-23T03:14:31.679Z,6.33
2022-09-23T03:17:04.201Z,6.44
2022-09-23T03:19:41.358Z,6.49
2022-09-23T03:22:13.337Z,6.51
2022-09-23T03:24:44.758Z,6.48
2022-09-23T03:27:17.732Z,6.49
2022-09-23T03:29:47.656Z,6.52
2022-09-23T03:32:18.255Z,6.50
2022-09-23T03:34:50.337Z,6.50
2022-09-23T03:37:22.564Z,6.51
2022-09-23T03:39:55.068Z,6.38
2022-09-23T03:42:25.935Z,6.28
2022-09-23T03:44:56.367Z,6.24
2022-09-23T03:47:26.261Z,6.16
2022-09-23T03:49:56.700Z,6.04
2022-09-23T03:52:25.544Z,6.09
2022-09-23T03:54:53.439Z,6.06
2022-09-23T03:57:22.433Z,6.05
2022-09-23T03:59:50.473Z,6.07
2022-09-23T04:02:18.814Z,6.03
2022-09-23T04:04:46.900Z,6.08
2022-09-23T04:07:15.992Z,6.05
2022-09-23T04:09:43.637Z,5.91
2022-09-23T04:12:14.692Z,6.01
2022-09-23T04:14:42.259Z,5.99
2022-09-23T04:17:10.190Z,5.93
2022-09-23T04:19:37.971Z,5.89
2022-09-23T04:22:06.117Z,5.88
2022-09-23T04:24:35.385Z,5.93
2022-09-23T04:27:03.297Z,5.93
2022-09-23T04:29:30.859Z,5.83
2022-09-23T04:31:58.712Z,5.74
2022-09-23T04:34:26.456Z,5.75
2022-09-23T04:36:53.946Z,5.81
2022-09-23T04:39:21.439Z,5.78
2022-09-23T04:41:50.262Z,5.77
2022-09-23T04:44:17.756Z,5.77
2022-09-23T04:46:48.239Z,5.89
2022-09-23T04:49:16.573Z,5.93
2022-09-23T04:51:44.091Z,5.93
2022-09-23T04:54:12.678Z,5.88
2022-09-23T04:56:40.829Z,5.76
2022-09-23T04:59:09.822Z,5.75
2022-09-23T05:01:38.339Z,5.74
2022-09-23T05:04:08.542Z,5.82
2022-09-23T05:06:36.932Z,5.87
2022-09-23T05:09:07.468Z,5.92
2022-09-23T05:11:35.663Z,5.92
2022-09-23T05:14:03.346Z,5.99
2022-09-23T05:16:32.254Z,6.03
2022-09-23T05:18:59.951Z,6.06
2022-09-23T05:21:28.865Z,6.10
2022-09-23T05:24:00.283Z,6.12
2022-09-23T05:26:29.411Z,6.16
2022-09-23T05:28:57.240Z,6.17
2022-09-23T05:31:26.289Z,6.24
2022-09-23T05:33:57.901Z,6.67
2022-09-23T05:36:26.104Z,7.12
2022-09-23T05:38:54.593Z,7.68
2022-09-23T05:41:23.391Z,8.45
2022-09-23T05:43:51.532Z,9.37
2022-09-23T05:46:20.873Z,9.82
2022-09-23T05:48:49.009Z,10.36
2022-09-23T05:51:20.105Z,10.58
2022-09-23T05:53:48.747Z,10.92
2022-09-23T05:56:18.238Z,11.25
2022-09-23T05:58:46.120Z,11.79
2022-09-23T06:01:15.654Z,12.30
2022-09-23T06:03:43.130Z,12.93
2022-09-23T06:06:14.461Z,13.71
2022-09-23T06:08:43.616Z,14.56
2022-09-23T06:11:12.287Z,15.75
2022-09-23T06:13:40.375Z,17.06
2022-09-23T06:16:09.074Z,17.87
2022-09-23T06:18:36.819Z,18.63
2022-09-23T06:21:05.244Z,19.73
2022-09-23T06:23:33.074Z,20.88
2022-09-23T06:26:02.443Z,21.65
2022-09-23T06:28:32.157Z,22.52
2022-09-23T06:31:00.388Z,23.56
2022-09-23T06:33:35.854Z,24.41
2022-09-23T06:36:06.706Z,24.82
2022-09-23T06:38:34.543Z,24.30
2022-09-23T06:41:04.057Z,22.66
2022-09-23T06:43:32.193Z,20.90
2022-09-23T06:46:00.997Z,20.89
2022-09-23T06:48:29.482Z,22.15
2022-09-23T06:51:02.364Z,23.80
2022-09-23T06:53:32.107Z,24.91
2022-09-23T06:56:00.485Z,25.31
2022-09-23T06:58:29.788Z,25.30
2022-09-23T07:01:02.325Z,25.95
2022-09-23T07:03:30.877Z,26.63
2022-09-23T07:05:59.135Z,27.00
2022-09-23T07:08:28.095Z,26.82
2022-09-23T07:10:56.661Z,27.10
2022-09-23T07:13:24.613Z,26.59
2022-09-23T07:15:55.024Z,26.71
2022-09-23T07:18:24.045Z,27.08
2022-09-23T07:20:51.951Z,27.08
2022-09-23T07:23:19.649Z,26.40
2022-09-23T07:25:50.267Z,26.07
2022-09-23T07:28:18.889Z,25.15
2022-09-23T07:30:57.177Z,24.15
2022-09-23T07:33:32.489Z,23.39
2022-09-23T07:36:00.873Z,21.75
2022-09-23T07:38:30.261Z,21.73
2022-09-23T07:41:02.708Z,21.30
2022-09-23T07:43:31.806Z,20.42
2022-09-23T07:46:02.172Z,20.58
2022-09-23T07:48:34.457Z,20.51
2022-09-23T07:51:07.616Z,19.88
2022-09-23T07:53:35.681Z,19.47
2022-09-23T07:56:06.447Z,19.62
2022-09-23T07:58:35.554Z,19.53
2022-09-23T08:01:05.177Z,20.12
2022-09-23T08:03:35.000Z,20.73
2022-09-23T08:06:10.441Z,20.37
2022-09-23T08:08:40.463Z,20.09
2022-09-23T08:11:11.133Z,19.72
2022-09-23T08:13:38.994Z,20.70
2022-09-23T08:16:07.255Z,20.38
2022-09-23T08:18:36.606Z,21.24
2022-09-23T08:21:04.713Z,21.60
2022-09-23T08:23:33.550Z,21.06
2022-09-23T08:26:03.080Z,21.28
2022-09-23T08:28:31.958Z,20.59
2022-09-23T08:30:59.473Z,19.28
2022-09-23T08:33:27.097Z,19.81
2022-09-23T08:36:00.537Z,19.86
2022-09-23T08:38:28.674Z,19.99
2022-09-23T08:41:06.370Z,20.65
2022-09-23T08:43:36.857Z,20.70
2022-09-23T08:46:07.267Z,20.54
2022-09-23T08:48:38.424Z,19.56
2022-09-23T08:51:13.576Z,19.26
2022-09-23T08:53:42.195Z,19.20
2022-09-23T08:56:15.716Z,18.72
2022-09-23T08:58:52.820Z,19.16
2022-09-23T09:01:26.412Z,19.76
2022-09-23T09:03:55.972Z,19.48
2022-09-23T09:06:30.898Z,19.96
2022-09-23T09:09:02.199Z,19.98
2022-09-23T09:11:36.814Z,19.87
2022-09-23T09:14:15.289Z,20.50
2022-09-23T09:16:59.947Z,20.93
2022-09-23T09:19:51.867Z,21.09
2022-09-23T09:22:25.985Z,21.49
2022-09-23T09:24:57.375Z,20.83
2022-09-23T09:27:25.080Z,20.38
2022-09-23T09:29:56.401Z,19.42
2022-09-23T09:32:38.160Z,19.37
2022-09-23T09:35:10.224Z,18.88
2022-09-23T09:37:46.772Z,19.44
2022-09-23T09:40:16.279Z,19.93
2022-09-23T09:42:48.287Z,20.39
2022-09-23T09:45:24.079Z,20.98
2022-09-23T09:48:00.897Z,20.92
2022-09-23T09:50:47.065Z,21.07
2022-09-23T09:53:21.766Z,21.19
2022-09-23T09:56:04.710Z,21.20
2022-09-23T09:58:43.602Z,21.67
2022-09-23T10:01:19.537Z,22.19
2022-09-23T10:03:47.799Z,21.96
2022-09-23T10:06:19.356Z,21.75
2022-09-23T10:09:16.864Z,22.01
2022-09-23T10:12:03.772Z,22.19
2022-09-23T10:14:31.459Z,22.10
2022-09-23T10:17:05.322Z,22.02
2022-09-23T10:19:35.354Z,22.58
2022-09-23T10:22:06.232Z,22.34
2022-09-23T10:24:36.567Z,22.04
2022-09-23T10:27:08.543Z,21.98
2022-09-23T10:29:40.697Z,22.48
2022-09-23T10:32:27.346Z,23.16
2022-09-23T10:34:58.048Z,22.56
2022-09-23T10:37:38.418Z,22.55
2022-09-23T10:40:44.941Z,22.41
2022-09-23T10:43:39.067Z,22.16
2022-09-23T10:46:27.293Z,22.33
2022-09-23T10:49:12.207Z,22.75
2022-09-23T10:51:50.253Z,22.94
2022-09-23T10:54:27.292Z,23.33
2022-09-23T10:56:59.738Z,23.63
2022-09-23T10:59:43.481Z,23.92
2022-09-23T11:02:35.789Z,24.35
2022-09-23T11:05:27.245Z,24.25
2022-09-23T11:08:06.163Z,23.98
2022-09-23T11:10:52.038Z,24.07
2022-09-23T11:13:35.555Z,25.17
2022-09-23T11:16:12.345Z,25.05
2022-09-23T11:19:00.277Z,24.81
2022-09-23T11:21:44.143Z,23.84
2022-09-23T11:24:39.249Z,23.83
2022-09-23T11:27:20.124Z,23.66
2022-09-23T11:30:01.704Z,23.61
2022-09-23T11:32:46.996Z,23.71
2022-09-23T11:35:20.429Z,23.82
2022-09-23T11:37:52.335Z,23.50
2022-09-23T11:40:24.454Z,24.34
2022-09-23T11:42:58.104Z,24.39
2022-09-23T11:45:31.900Z,24.15
2022-09-23T11:48:04.187Z,24.45
2022-09-23T11:50:37.337Z,24.00
2022-09-23T11:53:09.796Z,24.54
2022-09-23T11:55:54.599Z,24.86
2022-09-23T11:58:27.118Z,24.07
2022-09-23T12:01:02.027Z,23.74
2022-09-23T12:03:44.429Z,23.33
2022-09-23T12:06:16.010Z,23.00
2022-09-23T12:08:43.539Z,23.14
2022-09-23T12:11:26.007Z,23.76
2022-09-23T12:14:02.939Z,23.40
2022-09-23T12:16:58.991Z,23.46
2022-09-23T12:20:10.287Z,23.65
2022-09-23T12:22:52.651Z,23.65
2022-09-23T12:25:36.630Z,24.02
2022-09-23T12:28:07.944Z,24.52
2022-09-23T12:30:38.141Z,24.86
2022-09-23T12:33:17.710Z,24.22
2022-09-23T12:35:47.072Z,24.58
2022-09-23T12:38:19.306Z,25.11
2022-09-23T12:40:47.558Z,24.46
2022-09-23T12:43:21.018Z,24.32
2022-09-23T12:45:49.192Z,23.88
2022-09-23T12:48:45.035Z,25.25
2022-09-23T12:51:18.618Z,25.83
2022-09-23T12:53:58.272Z,25.31
2022-09-23T12:56:29.736Z,24.74
2022-09-23T12:59:21.631Z,25.18
2022-09-23T13:01:49.248Z,25.05
2022-09-23T13:04:52.049Z,25.54
2022-09-23T13:07:24.782Z,25.52
2022-09-23T13:09:56.518Z,25.23
2022-09-23T13:12:29.390Z,25.09
2022-09-23T13:15:00.649Z,25.42
2022-09-23T13:17:33.387Z,26.95
2022-09-23T13:20:27.337Z,26.39
2022-09-23T13:23:16.824Z,26.20
2022-09-23T13:25:44.876Z,26.46
2022-09-23T13:28:27.156Z,26.28
2022-09-23T13:30:55.220Z,25.12
2022-09-23T13:33:29.611Z,23.58
2022-09-23T13:36:04.049Z,24.21
2022-09-23T13:38:33.937Z,25.15
2022-09-23T13:41:04.617Z,26.43
2022-09-23T13:43:40.968Z,26.83
2022-09-23T13:46:13.915Z,27.17
2022-09-23T13:48:45.369Z,26.90
2022-09-23T13:51:21.901Z,25.89
2022-09-23T13:53:54.520Z,25.34
2022-09-23T13:56:23.168Z,25.18
2022-09-23T13:58:50.742Z,25.45
2022-09-23T14:01:24.210Z,24.94
2022-09-23T14:03:52.238Z,24.93
2022-09-23T14:06:21.175Z,24.28
2022-09-23T14:08:50.688Z,24.27
2022-09-23T14:11:20.455Z,24.43
2022-09-23T14:13:50.923Z,24.67
2022-09-23T14:16:19.568Z,24.89
2022-09-23T14:18:49.512Z,25.60
2022-09-23T14:21:30.269Z,26.11
2022-09-23T14:23:57.863Z,26.70
2022-09-23T14:26:26.985Z,27.49
2022-09-23T14:28:55.003Z,27.77
2022-09-23T14:31:24.034Z,27.19
2022-09-23T14:33:51.724Z,27.06
2022-09-23T14:36:36.550Z,27.07
2022-09-23T14:39:07.993Z,26.60
2022-09-23T14:41:39.118Z,25.70
2022-09-23T14:44:08.843Z,25.68
2022-09-23T14:46:38.923Z,26.84
2022-09-23T14:49:16.590Z,26.23
2022-09-23T14:51:50.320Z,25.95
2022-09-23T14:54:33.592Z,26.82
2022-09-23T14:57:02.235Z,27.26
2022-09-23T14:59:35.588Z,27.14
2022-09-23T15:02:03.468Z,26.80
2022-09-23T15:04:34.880Z,26.05
2022-09-23T15:07:16.533Z,25.79
2022-09-23T15:09:46.457Z,25.85
2022-09-23T15:12:16.185Z,25.64
2022-09-23T15:14:46.846Z,25.50
2022-09-23T15:17:32.493Z,25.14
2022-09-23T15:20:03.320Z,24.15
2022-09-23T15:22:30.807Z,23.34
2022-09-23T15:25:17.078Z,23.28
2022-09-23T15:27:57.521Z,23.39
2022-09-23T15:30:25.086Z,23.40
2022-09-23T15:32:52.930Z,23.25
2022-09-23T15:35:22.555Z,23.04
2022-09-23T15:37:51.451Z,23.15
2022-09-23T15:40:23.876Z,23.11
2022-09-23T15:42:53.327Z,23.02
2022-09-23T15:45:27.185Z,22.85
2022-09-23T15:47:55.714Z,22.91
2022-09-23T15:50:23.267Z,22.57
2022-09-23T15:52:50.757Z,22.70
2022-09-23T15:55:22.874Z,22.45
2022-09-23T15:57:50.643Z,22.25
2022-09-23T16:00:18.430Z,22.13
2022-09-23T16:02:48.516Z,22.16
2022-09-23T16:05:20.615Z,22.37
2022-09-23T16:07:48.246Z,22.21
2022-09-23T16:10:16.077Z,21.79
2022-09-23T16:12:45.055Z,21.73
2022-09-23T16:15:15.892Z,21.56
2022-09-23T16:17:44.229Z,21.59
2022-09-23T16:20:12.225Z,21.40
2022-09-23T16:22:40.074Z,21.32
2022-09-23T16:25:12.281Z,21.11
2022-09-23T16:27:40.746Z,20.81
2022-09-23T16:30:11.476Z,20.42
2022-09-23T16:32:39.037Z,20.22
2022-09-23T16:35:08.341Z,19.91
2022-09-23T16:37:36.095Z,19.63
2022-09-23T16:40:04.669Z,19.26
2022-09-23T16:42:32.168Z,18.87
2022-09-23T16:44:59.654Z,18.68
2022-09-23T16:47:28.785Z,18.14
2022-09-23T16:49:56.270Z,17.96
2022-09-23T16:52:23.764Z,17.71
2022-09-23T16:54:51.232Z,17.49
2022-09-23T16:57:18.750Z,17.19
2022-09-23T17:00:03.862Z,16.95
2022-09-23T17:03:04.676Z,16.58
2022-09-23T17:05:32.164Z,16.23
2022-09-23T17:08:00.111Z,15.98
2022-09-23T17:10:27.592Z,15.92
2022-09-23T17:12:55.124Z,15.74
2022-09-23T17:15:22.708Z,15.54
2022-09-23T17:17:51.532Z,15.34
2022-09-23T17:20:20.033Z,15.17
2022-09-23T17:22:47.519Z,15.06
2022-09-23T17:25:15.761Z,14.86
2022-09-23T17:27:43.247Z,14.78
2022-09-23T17:30:11.691Z,14.61
2022-09-23T17:32:39.169Z,14.44
2022-09-23T17:35:09.787Z,14.29
2022-09-23T17:37:37.863Z,14.19
2022-09-23T17:40:06.517Z,14.07
2022-09-23T17:42:34.388Z,14.04
2022-09-23T17:45:02.176Z,13.89
2022-09-23T17:47:32.444Z,13.65
2022-09-23T17:50:00.888Z,13.61
2022-09-23T17:52:29.674Z,13.47
2022-09-23T17:54:57.124Z,13.43
2022-09-23T17:57:24.589Z,13.40
2022-09-23T17:59:53.607Z,13.22
2022-09-23T18:02:22.492Z,13.17
2022-09-23T18:04:50.009Z,13.13
2022-09-23T18:07:17.728Z,13.01
2022-09-23T18:09:46.509Z,12.86
2022-09-23T18:12:14.692Z,12.71
2022-09-23T18:14:42.173Z,12.69
2022-09-23T18:17:09.967Z,12.63
2022-09-23T18:19:37.494Z,12.61
2022-09-23T18:22:04.948Z,12.48
2022-09-23T18:24:37.838Z,12.34
2022-09-23T18:27:07.357Z,12.28
2022-09-23T18:29:35.462Z,12.28
2022-09-23T18:32:03.722Z,12.24
2022-09-23T18:34:31.218Z,12.18
2022-09-23T18:36:58.716Z,12.16
2022-09-23T18:39:26.322Z,12.07
2022-09-23T18:41:54.801Z,12.06
2022-09-23T18:44:24.195Z,12.04
2022-09-23T18:46:51.830Z,12.00
2022-09-23T18:49:36.656Z,11.95
2022-09-23T18:52:04.180Z,11.82
2022-09-23T18:54:31.665Z,11.86
2022-09-23T18:56:59.541Z,11.78
2022-09-23T18:59:29.711Z,11.72
2022-09-23T19:01:57.848Z,11.72
2022-09-23T19:04:27.506Z,11.70
2022-09-23T19:06:56.511Z,11.62
2022-09-23T19:09:24.315Z,11.50
2022-09-23T19:11:52.584Z,11.39
2022-09-23T19:14:20.393Z,11.43
2022-09-23T19:16:50.593Z,11.39
2022-09-23T19:19:18.105Z,11.43
2022-09-23T19:21:45.804Z,11.42
2022-09-23T19:24:15.776Z,11.33
2022-09-23T19:26:44.063Z,11.43
2022-09-23T19:29:15.204Z,11.38
2022-09-23T19:31:43.391Z,11.36
2022-09-23T19:34:15.797Z,11.33
2022-09-23T19:36:44.713Z,11.18
2022-09-23T19:39:17.111Z,11.09
2022-09-23T19:41:44.634Z,11.19
2022-09-23T19:44:12.170Z,11.19
2022-09-23T19:46:42.809Z,11.23
2022-09-23T19:49:11.025Z,11.13
2022-09-23T19:51:40.139Z,10.54
2022-09-23T19:54:08.948Z,10.39
2022-09-23T19:56:38.489Z,10.75
2022-09-23T19:59:09.113Z,10.60
2022-09-23T20:01:36.732Z,10.85
2022-09-23T20:04:05.587Z,10.70
2022-09-23T20:06:34.838Z,10.69
2022-09-23T20:09:03.720Z,10.70
2022-09-23T20:11:32.382Z,10.96
2022-09-23T20:14:03.736Z,11.01
2022-09-23T20:16:34.092Z,11.05
2022-09-23T20:19:02.826Z,11.02
2022-09-23T20:21:30.656Z,10.91
2022-09-23T20:23:58.637Z,10.76
2022-09-23T20:26:45.174Z,10.92
2022-09-23T20:29:12.842Z,11.03
2022-09-23T20:31:41.321Z,10.99
2022-09-23T20:34:10.412Z,10.96
2022-09-23T20:36:39.465Z,10.96
2022-09-23T20:39:07.118Z,10.88
2022-09-23T20:41:38.285Z,10.74
2022-09-23T20:44:07.809Z,10.64
2022-09-23T20:46:35.923Z,10.75
2022-09-23T20:49:04.424Z,10.87
2022-09-23T20:51:33.779Z,10.87
2022-09-23T20:54:01.668Z,10.75
2022-09-23T20:56:29.610Z,10.87
2022-09-23T20:59:01.358Z,10.91
2022-09-23T21:01:29.152Z,10.72
2022-09-23T21:03:56.737Z,10.79
2022-09-23T21:06:26.115Z,10.80
2022-09-23T21:08:54.508Z,10.80
2022-09-23T21:11:22.754Z,10.74
2022-09-23T21:13:52.371Z,10.78
2022-09-23T21:16:22.932Z,10.74
2022-09-23T21:18:51.598Z,10.55
2022-09-23T21:21:22.067Z,10.74
2022-09-23T21:23:50.841Z,10.85
2022-09-23T21:26:20.145Z,10.89
2022-09-23T21:28:49.483Z,10.95
2022-09-23T21:31:23.838Z,10.95
2022-09-23T21:33:56.936Z,10.99
2022-09-23T21:36:24.906Z,11.09
2022-09-23T21:38:53.160Z,11.15
2022-09-23T21:41:21.217Z,11.15
2022-09-23T21:43:49.479Z,11.11
2022-09-23T21:46:19.984Z,11.12
2022-09-23T21:48:49.783Z,11.15
2022-09-23T21:51:21.376Z,11.05
2022-09-23T21:53:48.989Z,11.10
2022-09-23T21:56:20.894Z,11.03
2022-09-23T21:58:49.445Z,11.13
2022-09-23T22:01:18.887Z,11.02
2022-09-23T22:03:51.757Z,11.11
2022-09-23T22:06:22.499Z,11.19
2022-09-23T22:08:51.795Z,11.14
2022-09-23T22:11:39.663Z,11.14
2022-09-23T22:14:08.618Z,11.15
2022-09-23T22:16:36.821Z,11.12
2022-09-23T22:19:06.841Z,11.13
2022-09-23T22:21:38.009Z,11.15
2022-09-23T22:24:07.707Z,11.16
2022-09-23T22:26:38.680Z,11.18
2022-09-23T22:29:25.414Z,11.19
2022-09-23T22:32:11.127Z,11.24
2022-09-23T22:34:50.582Z,11.23
2022-09-23T22:37:23.096Z,11.23
2022-09-23T22:39:50.530Z,11.15
2022-09-23T22:42:21.088Z,11.11
2022-09-23T22:44:48.637Z,11.16
2022-09-23T22:47:17.512Z,11.21
2022-09-23T22:49:44.958Z,11.29
2022-09-23T22:52:12.517Z,11.28
2022-09-23T22:54:41.450Z,11.34
2022-09-23T22:57:09.788Z,11.35
2022-09-23T22:59:38.147Z,11.31
2022-09-23T23:02:06.513Z,11.42
2022-09-23T23:04:34.427Z,11.46
2022-09-23T23:07:03.089Z,11.56
2022-09-23T23:09:31.109Z,11.61
2022-09-23T23:11:59.877Z,11.59
2022-09-23T23:14:27.896Z,11.58
2022-09-23T23:16:55.371Z,11.60
2022-09-23T23:19:23.553Z,11.65
2022-09-23T23:21:51.729Z,11.53
2022-09-23T23:24:21.194Z,11.57
2022-09-23T23:26:49.491Z,11.54
2022-09-23T23:29:20.834Z,11.49
2022-09-23T23:31:48.934Z,11.49
2022-09-23T23:34:18.561Z,11.48
2022-09-23T23:36:47.052Z,11.39
2022-09-23T23:39:15.276Z,11.42
2022-09-23T23:41:42.879Z,11.48
2022-09-23T23:44:12.891Z,11.46
2022-09-23T23:46:41.862Z,11.41
2022-09-23T23:49:09.353Z,11.43
2022-09-23T23:51:36.806Z,11.46
2022-09-23T23:54:04.555Z,11.50
2022-09-23T23:56:32.247Z,11.50
2022-09-23T23:59:02.454Z,11.46
